Terminal Aerodrome Forecast
Issued by NWS

Home | Current Version | Previous Version | Text Only | Print | Product List | Glossary On
Versions: 1 2 3 4 5 6 7 8 9 10 11 12 13 14 15 16 17 18 19 20 21 22 23 24 25 26 27 28 29 30
000
FTUS46 KPDT 310900 AAB
TAFBDN
TAF AMD
KBDN 310912Z 3109/0106 19003KT 1/4SM FZFG OVC001
      TEMPO 3109/3112 1SM BR OVC003
     FM311500 VRB03KT 3SM BR OVC007
     FM311900 VRB03KT P6SM SCT008 SCT150=

USA.gov is the U.S. government's official web portal to all federal, state and local government web resources and services.